SCLD weather

Llanada Grande Airport
Llanada Grande, Los Lagos Region, Chile

Public forecast

Using degrees Celsius for public forecast. Weather courtesy of forecast.io.

Closest aviation weather report (METAR) to Llanada Grande Airport

Closest report is San Carlos De Bariloche Airport, 55.4 nm (102.5 km) NE. Retrieved 2019/10/16 18:00 UTC (3 minutes ago):

SAZS 161800Z 34008KT 9999 SCT047 15/01 Q1015

Closest aviation forecast (TAF) to Llanada Grande Airport

Closest forecast is San Carlos De Bariloche Airport, 55.4 nm (102.5 km) NE. Retrieved 2019/10/16 18:00 UTC (3 minutes ago):

TAF SAZS 161700Z 1618/1718 04010KT 9999 SCT040 TX16/1619Z TNM01/1710Z BECMG 1619/1622 29010KT BECMG 1706/1708 29005KT SCT015 BECMG 1710/1713 29010KT CAVOK